Aviation Digital Data Service (ADDS)

Output produced by METARs form (1923 UTC 18 June 2019)
found at http://www.aviationweather.gov/metar/data/
 
KADH 181910Z AUTO 19003KT 10SM 30/18 A2992 RMK AO2
KAXS 181915Z AUTO 24004KT 5SM HZ CLR 32/14 A2993 RMK AO2 T03190142
KAVK 181915Z AUTO 22010G15KT 10SM FEW060 31/19 A2987 RMK AO2
K1F0 181915Z AUTO 00000KT 10SM CLR 30/17 A2991 RMK AO2
KADM 181855Z 25005KT 7SM CLR 31/20 A2990
KAQR 181915Z AUTO 00000KT 10SM CLR 30/18 A2991 RMK AO2
KBVO 181853Z AUTO VRB05KT 10SM FEW037 SCT046 30/21 A2991 RMK AO2 SLP117 T03000206
KBVO 181720Z 1818/1918 16005KT P6SM SCT040 BKN250 
     FM190300 17005KT P6SM OVC050 
     PROB30 1903/1906 VRB25G35KT 1SM +TSRA BKN030CB 
     FM190600 17005KT P6SM VCTS OVC050CB 
     TEMPO 1906/1910 1SM +TSRA BKN030CB 
     FM191000 20006KT 5SM -RA BR OVC100 
     FM191200 30006KT P6SM OVC015
       
KBKN 181915Z AUTO 13008G15KT 080V160 10SM FEW047 31/20 A2990 RMK AO2
KCQB 181915Z AUTO 19005KT 10SM SCT037 SCT044 30/20 A2991 RMK AO2 T02950205
KCHK 181915Z AUTO 20010KT 10SM SCT050 31/19 A2987 RMK AO2 T03140192
KGCM 181915Z AUTO 11004KT 10SM BKN039 28/18 A2991 RMK AO2
KCLK 181915Z AUTO 21008KT 10SM CLR 31/11 A2991 RMK AO2
KCSM 181853Z 23011KT 10SM CLR 31/13 A2993 RMK AO2 SLP109 T03060133
KCSM 181721Z 1818/1918 19010G19KT P6SM SCT050 
     FM190200 18010KT P6SM OVC250 
     TEMPO 1903/1906 5SM TSRA OVC050CB 
     FM191100 28012G18KT P6SM OVC050
       
KCUH 181915Z AUTO 14005KT 10SM SCT041 29/20 A2989 RMK AO2 T02940197
KDUC 181915Z AUTO 22007KT 190V260 10SM CLR 31/19 A2992 RMK AO2 T03060192
KDUA 181859Z AUTO 00000KT 10SM SCT046 34/18 A2992 RMK AO2
KELK 181915Z AUTO 22010KT 10SM CLR 30/16 A2991 RMK AO2 T03000158
KRQO 181915Z AUTO 18011KT 5SM HZ CLR 31/20 A2991 RMK AO2 T03060196
KWDG 181845Z 20007KT 10SM SCT055 BKN250 31/18 A2987
KFDR 181853Z AUTO 23007KT 10SM CLR 31/19 A2989 RMK AO2 SLP104 T03110189
KGAG 181853Z AUTO 24011KT 10SM CLR 30/15 A2991 RMK AO2 SLP101 T03000150 $
KGOK 181853Z AUTO 16006KT 10SM FEW043 SCT050 30/19 A2989 RMK AO2 SLP111 T03000194 $
KHBR 181853Z AUTO 22007G14KT 180V250 10SM CLR 32/17 A2992 RMK AO2 SLP110 T03220167
K4O4 181915Z AUTO 24004KT 10SM SCT042 28/18 A2989 RMK AO2
KLAW 181853Z VRB04KT 10SM CLR 32/17 A2991 RMK AO2 SLP115 T03220167
KLAW 181721Z 1818/1918 16005KT P6SM SCT250 
     FM181900 18010G18KT P6SM SCT050 
     FM190200 18010KT P6SM OVC250 
     TEMPO 1903/1906 5SM TSRA OVC050CB 
     FM191400 28012G18KT P6SM OVC050
       
KMLC 181853Z AUTO 00000KT 10SM BKN043 BKN050 29/19 A2992 RMK AO2 SLP123 T02890194
KMLC 181720Z 1818/1918 23005KT P6SM SCT027 BKN035 
     FM190900 17005KT P6SM VCTS OVC050CB 
     TEMPO 1909/1913 VRB25G35KT 1SM +TSRA BKN030CB 
     FM191300 20006KT 5SM -RA BR OVC100 
     FM191500 30006KT P6SM OVC015
       
KMKO 181853Z AUTO 00000KT 10SM BKN041 29/20 A2991 RMK AO2 SLP122 T02890200
KOUN 181747Z 16007KT 10SM CLR 29/18 A2991
KOUN 181721Z 1818/1918 16010KT P6SM SCT040 BKN250 
     FM190200 18010KT P6SM OVC250 
     TEMPO 1903/1906 5SM TSRA OVC050CB 
     FM191500 29012G18KT P6SM OVC050
       
KRCE 181915Z AUTO 19012KT 10SM CLR 30/19 A2990 RMK AO2
KHSD 181910Z AUTO VRB06G15KT 10SM CLR 31/18 A2990 RMK A01
KPWA 181853Z 22008KT 10SM CLR 31/18 A2990 RMK AO2 SLP107 T03110183
KOKC 181852Z 21006KT 10SM SCT040 SCT250 30/19 A2991 RMK AO2 SLP112 T03000189
KOKC 181721Z 1818/1918 16010KT P6SM SCT040 BKN250 
     FM190200 18010KT P6SM OVC250 
     TEMPO 1903/1906 5SM TSRA OVC050CB 
     FM191500 29012G18KT P6SM OVC050
       
KOKM 181915Z AUTO 00000KT 10SM CLR 30/18 A2990 RMK AO2 T02970182
KPNC 181853Z AUTO 14008KT 10SM SCT040 SCT050 29/20 A2989 RMK AO2 SLPNO T02890200
KPNC 181721Z 1818/1918 14007KT P6SM SCT250 
     FM190000 18010KT P6SM OVC250 
     TEMPO 1900/1903 5SM TSRA OVC050CB 
     FM191000 28012G18KT P6SM OVC050 AMD NOT SKED
       
KRKR 181915Z AUTO 00000KT 10SM SCT040 BKN060 29/18 A2990 RMK AO2
KH71 181915Z AUTO 12005KT 10SM FEW039 SCT048 29/19 A2990 RMK AO2
KOWP 181915Z AUTO 14003KT 10SM CLR 31/19 A2990 RMK AO2 T03080191 PWINO
KSRE 181920Z AUTO 10SM FEW039 FEW046 30/20 A2990 RMK AO2
KSNL 181915Z AUTO 19007KT 160V220 10SM CLR 29/19 A2990 RMK AO2 T02940188
KGZL 181915Z AUTO 31005KT 10SM CLR 30/14 A2990 RMK AO2
KSWO 181853Z 16007KT 10SM CLR 31/18 A2990 RMK AO2 SLP111 T03110183 $
KTQH 181915Z AUTO 27004KT 10SM SCT033 29/20 A2993 RMK AO2
KRVS 181853Z 00000KT 10SM CLR 30/18 A2990 RMK AO2 SLP126 T03000183
KRVS 181720Z 1818/1918 11004KT P6SM SCT040 BKN250 
     FM190600 17005KT P6SM VCTS OVC050CB 
     TEMPO 1906/1910 VRB25G35KT 1SM +TSRA BKN030CB 
     FM191000 20006KT 5SM -RA BR OVC100 
     FM191300 30006KT P6SM OVC015
       
KTUL 181853Z 16003KT 10SM SCT045 OVC250 29/19 A2988 RMK AO2 SLP109 T02890189
KTUL 181720Z 1818/1918 11004KT P6SM SCT040 BKN250 
     FM190600 17005KT P6SM VCTS OVC050CB 
     TEMPO 1906/1910 VRB25G35KT 1SM +TSRA BKN030CB 
     FM191000 20006KT 5SM -RA BR OVC100 
     FM191300 30006KT P6SM OVC015
       
KJWG 181915Z AUTO 20011KT 10SM SCT060 31/18 A2991 RMK AO2 T03060176
KOJA 181915Z AUTO 21008KT 10SM CLR A2991 RMK AO2
KWWR 181915Z AUTO 21010G16KT 10SM CLR 30/11 A2993 RMK AO2
KWWR 181721Z 1818/1918 20007KT P6SM SCT150 SCT250 
     FM190000 18010KT P6SM OVC250 
     TEMPO 1900/1903 5SM TSRA OVC050CB 
     FM191000 28012G18KT P6SM OVC050